Time;durP1;ratioP1;P1;durP2;ratioP2;P2;SDS_P1;SDS_P2;PMS_P1;PMS_P2;Temp;Humidity;BMP_temperature;BMP_pressure;BME280_temperature;BME280_humidity;BME280_pressure;Samples;Min_cycle;Max_cycle;Signal;HPM_P1;HPM_P2
2022/06/14 00:02:02;;;;;;;11.43;4.13;;;;;;;23.54;61.15;100472.94;2094452;28;20094;-75
2022/06/14 00:03:26;;;;;;;8.88;4.55;;;;;;;23.54;61.10;100464.84;2092246;28;20151;-74
2022/06/14 00:04:50;;;;;;;7.38;4.32;;;;;;;23.53;61.24;100466.66;2100002;28;20139;-75
2022/06/14 00:06:17;;;;;;;7.38;4.13;;;;;;;23.53;61.17;100463.97;2093452;28;20052;-75
2022/06/14 00:07:38;;;;;;;8.63;5.15;;;;;;;23.51;61.18;100468.53;2098981;28;20067;-74
2022/06/14 00:09:01;;;;;;;9.82;4.82;;;;;;;23.48;61.12;100455.22;2089843;28;20060;-75
2022/06/14 00:10:22;;;;;;;11.98;4.97;;;;;;;23.48;61.23;100460.59;2098728;28;20099;-75
2022/06/14 00:11:46;;;;;;;7.50;4.10;;;;;;;23.47;61.29;100458.84;2102189;28;20040;-74
2022/06/14 00:13:09;;;;;;;9.00;4.53;;;;;;;23.48;61.28;100462.44;2098684;28;20040;-75
2022/06/14 00:14:31;;;;;;;10.75;4.43;;;;;;;23.47;61.12;100469.63;2101176;28;20089;-75
2022/06/14 00:15:53;;;;;;;9.88;3.97;;;;;;;23.45;61.23;100458.88;2109472;28;20142;-74
2022/06/14 00:17:15;;;;;;;10.38;4.30;;;;;;;23.46;61.13;100462.44;2095208;28;20047;-75
2022/06/14 00:18:38;;;;;;;9.77;4.30;;;;;;;23.47;61.15;100463.31;2099718;28;20976;-75
2022/06/14 00:20:00;;;;;;;6.68;3.88;;;;;;;23.49;61.09;100466.88;2100955;28;20059;-75
2022/06/14 00:21:23;;;;;;;7.47;3.63;;;;;;;23.46;61.09;100462.44;2101886;28;20474;-74
2022/06/14 00:22:44;;;;;;;8.73;4.50;;;;;;;23.45;61.13;100466.06;2101195;28;20079;-74
2022/06/14 00:24:07;;;;;;;8.73;4.35;;;;;;;23.44;61.02;100459.81;2092359;28;20032;-75
2022/06/14 00:25:31;;;;;;;10.55;4.40;;;;;;;23.45;61.15;100466.97;2101770;28;20535;-74
2022/06/14 00:26:54;;;;;;;7.00;4.03;;;;;;;23.44;61.10;100458.94;2102729;28;20048;-75
2022/06/14 00:28:16;;;;;;;6.15;4.32;;;;;;;23.46;60.98;100462.44;2101942;28;20114;-74
2022/06/14 00:29:39;;;;;;;13.60;4.38;;;;;;;23.44;61.17;100456.22;2102206;28;20679;-75
2022/06/14 00:31:04;;;;;;;8.85;4.00;;;;;;;23.42;61.16;100450.06;2101733;28;20460;-75
2022/06/14 00:32:25;;;;;;;10.13;4.57;;;;;;;23.41;61.18;100459.06;2104456;28;20044;-75
2022/06/14 00:33:48;;;;;;;7.68;4.43;;;;;;;23.41;61.15;100448.31;2097775;28;20051;-74
2022/06/14 00:35:10;;;;;;;7.05;4.45;;;;;;;23.42;61.19;100447.38;2100534;28;20582;-74
2022/06/14 00:36:35;;;;;;;9.82;4.60;;;;;;;23.42;61.05;100452.75;2102022;28;20742;-76
2022/06/14 00:37:57;;;;;;;8.88;4.10;;;;;;;23.39;61.16;100451.06;2094045;28;20078;-74
2022/06/14 00:39:19;;;;;;;8.85;4.25;;;;;;;23.40;61.15;100449.25;2099606;28;20039;-74
2022/06/14 00:40:50;;;;;;;9.27;4.32;;;;;;;23.41;61.13;100451.00;2103566;28;20048;-74
2022/06/14 00:42:18;;;;;;;8.82;4.90;;;;;;;23.39;61.15;100445.66;2094760;28;20528;-74
2022/06/14 00:43:41;;;;;;;10.60;4.47;;;;;;;23.38;61.18;100461.88;2099290;28;20055;-74
2022/06/14 00:45:08;;;;;;;8.48;4.40;;;;;;;23.39;61.01;100458.25;2100567;28;20478;-72
2022/06/14 00:46:37;;;;;;;8.43;4.30;;;;;;;23.38;61.04;100457.38;2094295;28;20055;-74
2022/06/14 00:48:01;;;;;;;9.93;4.80;;;;;;;23.37;61.16;100452.03;2108598;28;20545;-74
2022/06/14 00:49:28;;;;;;;10.80;4.50;;;;;;;23.36;61.08;100450.31;2101371;28;20085;-74
2022/06/14 00:51:01;;;;;;;9.88;4.78;;;;;;;23.37;61.10;100443.97;2102304;28;20043;-74
2022/06/14 00:52:29;;;;;;;9.00;4.53;;;;;;;23.36;60.99;100447.63;2104519;28;20511;-74
2022/06/14 00:54:01;;;;;;;7.90;4.03;;;;;;;23.35;61.00;100454.81;2102279;28;20035;-74
2022/06/14 00:55:30;;;;;;;8.98;4.00;;;;;;;23.34;61.04;100450.38;2094162;28;20139;-74
2022/06/14 00:56:56;;;;;;;6.82;3.60;;;;;;;23.35;61.04;100451.25;2100793;28;20072;-74
2022/06/14 00:58:22;;;;;;;9.10;4.25;;;;;;;23.33;61.10;100451.31;2093178;28;20055;-75
2022/06/14 00:59:49;;;;;;;7.63;4.22;;;;;;;23.33;61.10;100453.13;2101560;28;20043;-76
2022/06/14 01:01:15;;;;;;;10.00;4.82;;;;;;;23.30;61.15;100451.41;2099075;28;20123;-75
2022/06/14 01:02:41;;;;;;;9.77;4.43;;;;;;;23.30;61.18;100448.72;2101023;28;20473;-76
2022/06/14 01:04:10;;;;;;;10.55;4.30;;;;;;;23.33;61.07;100450.44;2104556;28;20119;-75
2022/06/14 01:06:05;;;;;;;7.55;4.75;;;;;;;23.34;61.04;100461.16;2098109;28;20048;-75
2022/06/14 01:07:26;;;;;;;10.02;4.40;;;;;;;23.34;60.97;100454.88;2096722;28;20044;-75
2022/06/14 01:08:50;;;;;;;8.77;4.10;;;;;;;23.34;61.02;100452.19;2106647;28;20736;-75
2022/06/14 01:10:17;;;;;;;7.10;4.03;;;;;;;23.33;61.06;100462.09;2095021;28;20135;-75
2022/06/14 01:11:44;;;;;;;7.57;4.15;;;;;;;23.33;61.02;100463.91;2100221;28;20140;-75
2022/06/14 01:13:07;;;;;;;9.45;4.25;;;;;;;23.31;61.02;100466.66;2094808;28;20072;-75
2022/06/14 01:14:39;;;;;;;10.80;5.15;;;;;;;23.31;61.03;100469.34;2097306;28;20070;-75
2022/06/14 01:16:00;;;;;;;10.40;5.05;;;;;;;23.30;61.12;100464.91;2096276;28;20060;-75
2022/06/14 01:17:24;;;;;;;8.00;4.25;;;;;;;23.31;61.01;100472.03;2099113;28;20044;-74
2022/06/14 01:18:46;;;;;;;7.13;4.13;;;;;;;23.29;61.06;100467.69;2103659;28;20086;-76
2022/06/14 01:20:10;;;;;;;10.98;4.25;;;;;;;23.27;61.14;100465.03;2093488;28;20053;-75
2022/06/14 01:21:32;;;;;;;8.93;4.47;;;;;;;23.28;61.11;100465.91;2090865;28;20041;-75
2022/06/14 01:22:56;;;;;;;15.05;4.97;;;;;;;23.30;61.16;100461.34;2102139;28;20047;-75
2022/06/14 01:24:20;;;;;;;8.85;4.38;;;;;;;23.29;61.01;100460.47;2091375;28;20844;-75
2022/06/14 01:25:47;;;;;;;10.50;4.30;;;;;;;23.31;61.18;100461.25;2098565;28;20514;-74
2022/06/14 01:27:13;;;;;;;9.00;4.35;;;;;;;23.31;60.97;100460.38;2109016;28;20043;-75
2022/06/14 01:28:37;;;;;;;12.63;4.72;;;;;;;23.29;60.97;100460.47;2103325;28;20060;-76
2022/06/14 01:30:06;;;;;;;9.25;3.88;;;;;;;23.29;61.00;100464.97;2102118;28;20054;-74
2022/06/14 01:31:31;;;;;;;8.68;4.60;;;;;;;23.29;60.90;100464.97;2102125;28;20123;-75
2022/06/14 01:32:57;;;;;;;10.27;4.28;;;;;;;23.30;60.95;100461.34;2098964;28;20120;-76
2022/06/14 01:34:19;;;;;;;9.07;4.55;;;;;;;23.28;60.97;100453.31;2102735;28;20447;-76
2022/06/14 01:35:45;;;;;;;11.93;4.22;;;;;;;23.30;61.01;100469.44;2110401;28;20047;-75
2022/06/14 01:37:07;;;;;;;10.95;4.60;;;;;;;23.27;61.04;100461.47;2101064;28;20052;-75
2022/06/14 01:38:32;;;;;;;6.75;4.25;;;;;;;23.30;61.12;100472.13;2101783;28;20047;-75
2022/06/14 01:39:56;;;;;;;10.52;4.85;;;;;;;23.26;60.92;100460.59;2101104;28;20097;-75
2022/06/14 01:41:34;;;;;;;9.80;4.80;;;;;;;23.25;61.05;100466.91;2103511;28;20052;-75
2022/06/14 01:43:31;;;;;;;7.05;3.95;;;;;;;23.23;61.00;100466.13;2104620;28;20060;-75
2022/06/14 01:45:02;;;;;;;12.35;5.15;;;;;;;23.22;61.07;100468.88;2103858;28;20056;-74
2022/06/14 01:46:27;;;;;;;11.40;4.65;;;;;;;23.22;60.97;100468.88;2100868;28;20048;-75
2022/06/14 01:47:55;;;;;;;17.00;4.90;;;;;;;23.20;60.97;100460.84;2110717;28;20043;-75
2022/06/14 01:53:03;;;;;;;8.63;4.03;;;;;;;23.18;61.02;100467.22;2107368;28;20504;-76
2022/06/14 01:54:36;;;;;;;8.93;4.40;;;;;;;23.20;61.00;100470.75;2103839;28;20055;-76
2022/06/14 01:56:08;;;;;;;8.70;4.18;;;;;;;23.20;61.03;100459.97;2102546;28;20076;-75
2022/06/14 01:57:38;;;;;;;7.85;4.43;;;;;;;23.19;60.97;100466.28;2101789;28;20147;-75
2022/06/14 01:59:11;;;;;;;9.60;4.78;;;;;;;23.19;60.97;100472.56;2094899;28;20095;-75
2022/06/14 02:00:39;;;;;;;7.93;4.85;;;;;;;23.18;60.95;100470.78;2089931;28;20064;-75
2022/06/14 02:02:07;;;;;;;6.78;4.60;;;;;;;23.20;60.96;100473.44;2099133;28;20139;-75
2022/06/14 02:05:23;;;;;;;9.27;5.07;;;;;;;23.20;60.86;100465.34;2112159;28;20075;-75
2022/06/14 02:06:54;;;;;;;6.93;4.60;;;;;;;23.20;60.88;100471.63;2102424;28;20130;-76
2022/06/14 02:08:21;;;;;;;12.27;5.53;;;;;;;23.19;60.85;100474.38;2106785;28;20130;-75
2022/06/14 02:09:54;;;;;;;10.82;4.88;;;;;;;23.18;60.78;100473.50;2103901;28;20060;-75
2022/06/14 02:11:25;;;;;;;8.40;4.65;;;;;;;23.15;60.93;100488.91;2100516;28;20044;-76
2022/06/14 02:13:00;;;;;;;8.13;4.55;;;;;;;23.12;60.88;100480.94;2103071;28;20113;-75
2022/06/14 02:14:32;;;;;;;10.07;5.32;;;;;;;23.13;60.97;100472.81;2095228;28;20563;-76
2022/06/14 02:16:05;;;;;;;9.05;4.97;;;;;;;23.14;60.90;100471.88;2093014;28;20076;-75
2022/06/14 02:17:34;;;;;;;11.15;4.25;;;;;;;23.17;60.81;100482.50;2090244;28;20102;-75
2022/06/14 02:19:04;;;;;;;10.40;4.05;;;;;;;23.16;60.88;100477.19;2108651;28;20052;-75
2022/06/14 02:20:32;;;;;;;8.48;4.95;;;;;;;23.18;60.77;100483.38;2097332;28;20064;-75
2022/06/14 02:22:00;;;;;;;8.38;5.13;;;;;;;23.16;60.81;100479.91;2096802;28;20056;-75
2022/06/14 02:23:27;;;;;;;8.32;4.25;;;;;;;23.12;60.87;100492.59;2104092;28;20042;-76
2022/06/14 02:24:55;;;;;;;9.50;4.50;;;;;;;23.10;60.90;100489.09;2097384;28;20048;-74
2022/06/14 02:26:23;;;;;;;9.07;4.65;;;;;;;23.10;60.91;100488.22;2104139;28;20044;-75
2022/06/14 02:27:52;;;;;;;11.52;4.75;;;;;;;23.10;60.93;100493.63;2104095;28;20090;-75
2022/06/14 02:29:20;;;;;;;7.60;4.25;;;;;;;23.10;60.93;100494.50;2099408;28;20565;-76
2022/06/14 02:30:51;;;;;;;8.13;4.32;;;;;;;23.12;60.89;100503.38;2101628;28;20044;-75
2022/06/14 02:32:19;;;;;;;11.60;5.47;;;;;;;23.13;60.66;100491.66;2102799;28;20084;-75
2022/06/14 02:33:46;;;;;;;12.80;4.45;;;;;;;23.13;60.83;100502.44;2100871;28;20145;-75
2022/06/14 02:35:12;;;;;;;7.45;3.78;;;;;;;23.14;60.74;100504.19;2102797;28;20048;-74
2022/06/14 02:36:40;;;;;;;9.98;4.72;;;;;;;23.14;60.71;100506.00;2098380;28;20075;-76
2022/06/14 02:38:11;;;;;;;10.43;4.53;;;;;;;23.11;60.81;100501.59;2095082;28;20056;-75
2022/06/14 02:39:36;;;;;;;7.00;4.28;;;;;;;23.12;60.82;100505.19;2101668;28;20097;-76
2022/06/14 02:41:07;;;;;;;11.20;4.18;;;;;;;23.14;60.72;100506.00;2107816;28;20047;-76
2022/06/14 02:42:34;;;;;;;7.55;4.60;;;;;;;23.14;60.61;100503.31;2097490;28;20052;-75
2022/06/14 02:44:06;;;;;;;8.35;4.70;;;;;;;23.13;60.68;100505.13;2099566;28;20063;-75
2022/06/14 02:45:34;;;;;;;11.73;4.50;;;;;;;23.13;60.54;100502.44;2104629;28;20050;-75
2022/06/14 02:47:02;;;;;;;8.68;4.07;;;;;;;23.12;60.65;100503.38;2103826;28;20064;-75
2022/06/14 02:48:30;;;;;;;7.80;4.60;;;;;;;23.09;60.71;100510.69;2103875;28;20062;-75
2022/06/14 02:49:57;;;;;;;7.55;4.57;;;;;;;23.07;60.82;100501.81;2095013;28;20068;-75
2022/06/14 02:51:25;;;;;;;11.32;4.32;;;;;;;23.09;60.70;100516.97;2100304;28;20125;-75
2022/06/14 02:52:53;;;;;;;9.98;4.47;;;;;;;23.13;60.50;100510.50;2107703;28;20434;-76
2022/06/14 02:54:27;;;;;;;8.50;4.57;;;;;;;23.18;60.49;100513.88;2103841;28;20055;-75
2022/06/14 02:55:53;;;;;;;16.55;4.30;;;;;;;23.20;60.38;100522.78;2094435;28;20072;-75
2022/06/14 02:57:26;;;;;;;10.63;4.35;;;;;;;23.23;60.25;100521.81;2101930;28;20138;-75
2022/06/14 02:58:53;;;;;;;6.45;4.22;;;;;;;23.24;60.25;100513.63;2103399;28;20063;-75
2022/06/14 03:00:19;;;;;;;7.65;4.13;;;;;;;23.27;60.11;100523.44;2102600;28;20040;-75
2022/06/14 03:01:46;;;;;;;7.70;4.40;;;;;;;23.27;60.23;100515.34;2100401;28;20125;-75
2022/06/14 03:03:13;;;;;;;11.82;4.60;;;;;;;23.29;60.08;100513.47;2102421;28;20147;-75
2022/06/14 03:04:40;;;;;;;10.40;4.53;;;;;;;23.29;60.16;100516.16;2100917;28;20559;-75
2022/06/14 03:06:09;;;;;;;7.63;4.30;;;;;;;23.29;60.11;100519.75;2095537;28;20037;-75
2022/06/14 03:07:39;;;;;;;8.73;4.28;;;;;;;23.30;60.10;100507.16;2104252;28;20539;-75
2022/06/14 03:09:05;;;;;;;8.15;4.22;;;;;;;23.32;60.07;100524.09;2103451;28;20067;-75
2022/06/14 03:10:36;;;;;;;8.13;4.22;;;;;;;23.34;60.05;100511.47;2095316;28;20036;-75
2022/06/14 03:12:06;;;;;;;7.88;4.35;;;;;;;23.36;59.97;100517.69;2094803;28;20067;-75
2022/06/14 03:13:37;;;;;;;7.82;4.00;;;;;;;23.38;59.97;100510.38;2101465;28;20099;-75
2022/06/14 03:15:09;;;;;;;6.60;3.88;;;;;;;23.39;59.87;100517.53;2101039;28;20155;-75
2022/06/14 03:16:34;;;;;;;;;;;;;;;23.41;59.71;100515.66;2103976;28;20063;-75
2022/06/14 03:18:06;;;;;;;10.23;4.40;;;;;;;23.45;59.79;100525.38;2095115;28;20236;-75
2022/06/14 03:19:37;;;;;;;8.03;4.03;;;;;;;23.46;59.54;100516.34;2105982;28;20170;-75
2022/06/14 03:21:11;;;;;;;13.07;4.43;;;;;;;23.50;59.69;100520.69;2103515;28;20297;-75
2022/06/14 03:22:44;;;;;;;15.00;5.22;;;;;;;23.56;59.45;100527.66;2104983;28;20052;-75
2022/06/14 03:24:12;;;;;;;7.43;4.07;;;;;;;23.59;59.49;100524.81;2094558;28;20037;-75
2022/06/14 03:25:45;;;;;;;7.45;4.15;;;;;;;23.61;59.50;100526.53;2094786;28;20055;-75
2022/06/14 03:27:16;;;;;;;9.95;4.38;;;;;;;23.65;59.43;100522.75;2102580;28;20106;-75
2022/06/14 03:28:44;;;;;;;8.65;4.50;;;;;;;23.71;59.42;100518.91;2097772;28;20044;-75
2022/06/14 03:30:14;;;;;;;9.68;3.75;;;;;;;23.77;59.14;100533.00;2094183;28;20041;-76
2022/06/14 03:31:38;;;;;;;10.60;3.92;;;;;;;23.84;58.99;100522.84;2097417;28;20079;-76
2022/06/14 03:33:06;;;;;;;8.23;4.00;;;;;;;23.92;58.92;100530.59;2094409;28;20139;-75
2022/06/14 03:34:35;;;;;;;6.68;3.60;;;;;;;23.99;58.70;100526.72;2109668;28;20209;-76
2022/06/14 03:35:58;;;;;;;8.70;3.88;;;;;;;24.05;58.60;100531.81;2107281;28;20424;-75
2022/06/14 03:37:22;;;;;;;8.15;4.05;;;;;;;24.12;58.58;100520.72;2103211;28;20055;-75
2022/06/14 03:38:49;;;;;;;9.07;4.10;;;;;;;24.21;58.44;100527.56;2094555;28;20650;-75
2022/06/14 03:40:15;;;;;;;10.35;4.22;;;;;;;24.28;58.17;100528.16;2094267;28;20040;-74
2022/06/14 03:41:40;;;;;;;10.30;3.42;;;;;;;24.36;58.12;100532.25;2093173;28;20048;-75
2022/06/14 03:43:04;;;;;;;6.65;3.80;;;;;;;24.43;58.07;100528.34;2103483;28;20082;-75
2022/06/14 03:44:32;;;;;;;8.48;3.65;;;;;;;24.51;57.75;100520.78;2103720;28;20056;-75
2022/06/14 03:46:01;;;;;;;7.97;3.20;;;;;;;24.59;57.50;100534.81;2102464;28;20500;-75
2022/06/14 03:47:27;;;;;;;8.43;3.25;;;;;;;24.67;57.33;100522.78;2102892;28;20067;-75
2022/06/14 03:48:51;;;;;;;7.60;3.60;;;;;;;24.74;57.03;100521.56;2100320;28;20362;-74
2022/06/14 03:50:19;;;;;;;7.50;3.63;;;;;;;24.82;57.14;100535.53;2111740;28;20070;-75
2022/06/14 03:51:52;;;;;;;9.85;2.80;;;;;;;24.88;57.01;100536.13;2097258;28;20040;-75
2022/06/14 03:53:29;;;;;;;9.23;3.47;;;;;;;24.99;56.79;100535.69;2102651;28;20055;-75
2022/06/14 03:55:02;;;;;;;7.53;3.83;;;;;;;25.06;56.90;100545.25;2104916;28;20062;-75
2022/06/14 03:56:41;;;;;;;10.27;3.55;;;;;;;25.15;56.47;100539.38;2094011;28;20052;-75
2022/06/14 03:58:17;;;;;;;8.05;3.63;;;;;;;25.24;56.66;100533.56;2098408;28;20076;-75
2022/06/14 03:59:56;;;;;;;7.45;3.63;;;;;;;25.33;56.39;100545.75;2101158;28;20067;-75
2022/06/14 04:01:22;;;;;;;7.45;3.90;;;;;;;25.41;56.14;100539.00;2102745;28;20501;-75
2022/06/14 04:03:06;;;;;;;6.70;3.25;;;;;;;25.53;55.79;100542.06;2095282;28;20139;-75
2022/06/14 04:04:42;;;;;;;5.68;3.40;;;;;;;25.64;55.91;100535.19;2104627;28;20110;-75
2022/06/14 04:06:14;;;;;;;6.95;3.33;;;;;;;25.77;55.58;100538.16;2095987;28;20143;-75
2022/06/14 04:07:47;;;;;;;7.18;3.53;;;;;;;25.89;55.57;100547.47;2094229;28;20136;-76
2022/06/14 04:09:21;;;;;;;7.85;5.30;;;;;;;26.01;54.99;100536.88;2102316;28;20043;-75
2022/06/14 04:10:48;;;;;;;8.95;4.63;;;;;;;26.10;54.65;100541.84;2096210;28;20095;-76
2022/06/14 04:12:22;;;;;;;5.82;3.33;;;;;;;26.21;54.52;100546.69;2103311;28;20079;-76
2022/06/14 04:13:50;;;;;;;9.45;3.10;;;;;;;26.31;54.36;100541.69;2101448;28;20760;-75
2022/06/14 04:15:26;;;;;;;4.88;2.83;;;;;;;26.41;53.99;100545.66;2110862;28;20092;-76
2022/06/14 04:16:58;;;;;;;7.35;3.30;;;;;;;26.51;53.79;100549.63;2104271;28;20095;-75
2022/06/14 04:18:38;;;;;;;8.52;3.50;;;;;;;26.60;53.64;100551.84;2102937;28;20488;-75
2022/06/14 04:20:12;;;;;;;7.65;3.25;;;;;;;26.70;53.25;100544.97;2103485;28;20479;-75
2022/06/14 04:21:49;;;;;;;7.10;3.28;;;;;;;26.83;52.99;100556.91;2094439;28;20060;-75
2022/06/14 04:23:20;;;;;;;7.70;3.35;;;;;;;26.98;53.02;100549.75;2101172;28;20533;-75
2022/06/14 04:24:44;;;;;;;10.48;3.92;;;;;;;27.12;52.62;100555.28;2087191;28;20443;-74
2022/06/14 04:26:15;;;;;;;7.20;3.88;;;;;;;27.28;52.22;100549.88;2096625;28;20638;-75
2022/06/14 04:27:47;;;;;;;10.27;3.75;;;;;;;27.43;52.07;100556.28;2111691;27;20052;-75
2022/06/14 04:29:16;;;;;;;7.97;3.60;;;;;;;27.56;51.43;100554.66;2105203;28;20167;-75
2022/06/14 04:30:47;;;;;;;7.82;3.58;;;;;;;27.69;51.10;100550.25;2096187;28;20059;-75
2022/06/14 04:32:14;;;;;;;6.75;3.55;;;;;;;27.85;50.89;100558.34;2099173;28;20040;-75
2022/06/14 04:33:42;;;;;;;9.38;3.50;;;;;;;28.00;50.57;100561.03;2100343;28;20052;-75
2022/06/14 04:35:09;;;;;;;7.07;2.95;;;;;;;28.20;50.22;100567.13;2102448;28;20082;-75
2022/06/14 04:36:38;;;;;;;8.40;3.80;;;;;;;28.42;49.79;100563.00;2102417;28;20062;-75
2022/06/14 04:38:04;;;;;;;11.10;3.42;;;;;;;28.61;49.43;100568.19;2103216;28;20119;-76
2022/06/14 04:39:35;;;;;;;7.50;3.15;;;;;;;28.78;48.91;100575.31;2093754;28;20043;-76
2022/06/14 04:41:02;;;;;;;8.15;3.70;;;;;;;29.02;48.63;100573.75;2099552;28;20044;-76
2022/06/14 04:42:31;;;;;;;8.15;3.50;;;;;;;29.29;48.07;100566.53;2102165;28;20044;-76
2022/06/14 04:43:59;;;;;;;9.95;3.33;;;;;;;29.54;47.74;100578.56;2103996;28;20076;-75
2022/06/14 04:45:24;;;;;;;7.82;3.22;;;;;;;29.73;47.18;100570.06;2101041;28;20051;-74
2022/06/14 04:46:53;;;;;;;6.22;3.20;;;;;;;29.83;46.78;100571.19;2101628;28;20043;-75
2022/06/14 04:48:19;;;;;;;9.07;3.47;;;;;;;29.99;46.29;100571.94;2098379;28;20457;-75
2022/06/14 04:49:47;;;;;;;6.95;2.95;;;;;;;30.17;46.18;100572.50;2103669;28;20135;-75
2022/06/14 04:51:16;;;;;;;5.97;3.20;;;;;;;30.42;45.50;100569.81;2104412;28;20055;-75
2022/06/14 04:52:44;;;;;;;7.13;3.20;;;;;;;30.68;44.89;100577.06;2096055;28;20049;-75
2022/06/14 04:54:12;;;;;;;7.10;3.40;;;;;;;30.93;44.57;100586.22;2110902;28;20146;-75
2022/06/14 04:55:40;;;;;;;8.43;3.20;;;;;;;31.03;44.09;100571.81;2104562;28;20044;-75
2022/06/14 04:57:07;;;;;;;7.82;3.10;;;;;;;31.08;43.90;100582.44;2099681;28;20043;-75
2022/06/14 04:58:40;;;;;;;9.20;3.00;;;;;;;31.16;43.70;100574.56;2094663;28;20140;-75
2022/06/14 05:00:09;;;;;;;5.78;2.83;;;;;;;31.25;43.30;100582.94;2099860;28;20365;-75
2022/06/14 05:01:37;;;;;;;6.47;3.42;;;;;;;31.32;43.03;100585.22;2091191;28;20051;-75
2022/06/14 05:03:07;;;;;;;8.55;3.67;;;;;;;31.45;42.87;100584.19;2100232;28;20073;-76
2022/06/14 05:04:36;;;;;;;8.70;3.08;;;;;;;31.67;42.75;100581.66;2094694;28;20512;-75
2022/06/14 05:06:03;;;;;;;5.95;2.85;;;;;;;31.86;42.07;100593.91;2100831;28;20133;-75
2022/06/14 05:07:31;;;;;;;7.75;3.00;;;;;;;31.95;42.04;100588.63;2091846;28;22109;-75
2022/06/14 05:08:58;;;;;;;6.40;3.15;;;;;;;32.04;42.11;100590.66;2105992;28;20135;-75
2022/06/14 05:10:26;;;;;;;7.40;2.88;;;;;;;32.16;41.43;100591.63;2103505;28;20693;-75
2022/06/14 05:11:54;;;;;;;7.53;2.75;;;;;;;32.36;41.39;100587.34;2101156;28;20063;-75
2022/06/14 05:13:24;;;;;;;7.18;3.33;;;;;;;32.57;40.81;100592.97;2101224;28;20032;-75
2022/06/14 05:14:53;;;;;;;5.32;3.00;;;;;;;32.64;40.59;100586.03;2109434;28;20074;-76
2022/06/14 05:16:22;;;;;;;9.75;3.28;;;;;;;32.76;40.53;100587.81;2103504;28;20060;-76
2022/06/14 05:17:49;;;;;;;7.00;3.25;;;;;;;32.81;40.33;100596.53;2091981;28;20139;-76
2022/06/14 05:19:20;;;;;;;6.70;2.65;;;;;;;32.83;40.19;100589.94;2099434;28;20044;-75
2022/06/14 05:20:47;;;;;;;9.85;2.97;;;;;;;32.90;40.10;100593.06;2103039;28;20131;-75
2022/06/14 05:22:14;;;;;;;7.43;3.38;;;;;;;32.84;40.27;100597.16;2101413;28;20093;-75
2022/06/14 05:23:42;;;;;;;6.38;3.10;;;;;;;32.57;40.94;100593.84;2101673;28;20551;-75
2022/06/14 05:25:07;;;;;;;7.57;3.08;;;;;;;32.67;40.68;100581.22;2095746;28;20129;-76
2022/06/14 05:26:46;;;;;;;8.45;3.22;;;;;;;32.32;40.92;100585.81;2098591;28;20044;-76
2022/06/14 05:28:13;;;;;;;6.85;3.30;;;;;;;32.18;41.05;100597.81;2104279;28;20471;-75
2022/06/14 05:29:45;;;;;;;9.00;2.92;;;;;;;32.27;41.14;100599.84;2100250;28;20197;-76
2022/06/14 05:31:18;;;;;;;4.47;2.97;;;;;;;32.12;41.47;100600.13;2100294;28;20135;-75
2022/06/14 05:32:50;;;;;;;4.70;2.85;;;;;;;31.97;41.53;100602.16;2103119;28;20068;-75
2022/06/14 05:34:19;;;;;;;14.57;3.20;;;;;;;31.76;41.64;100609.25;2094961;28;20450;-75
2022/06/14 05:35:50;;;;;;;7.32;3.50;;;;;;;31.25;42.59;100604.75;2099305;28;20052;-75
2022/06/14 05:37:24;;;;;;;11.65;3.50;;;;;;;30.64;43.81;100602.81;2084973;28;20568;-75
2022/06/14 05:38:52;;;;;;;8.40;3.28;;;;;;;30.19;44.73;100605.97;2093423;28;20093;-75
2022/06/14 05:40:22;;;;;;;6.90;3.47;;;;;;;29.84;45.45;100613.75;2091301;28;20480;-76
2022/06/14 05:41:49;;;;;;;9.32;3.25;;;;;;;29.45;46.42;100612.69;2093909;28;20040;-75
2022/06/14 05:43:14;;;;;;;8.82;3.33;;;;;;;29.11;47.20;100624.84;2093196;28;20099;-76
2022/06/14 05:44:43;;;;;;;8.65;3.13;;;;;;;29.25;47.03;100629.41;2100086;28;20063;-75
2022/06/14 05:46:10;;;;;;;8.70;3.60;;;;;;;29.23;47.18;100626.78;2102682;28;20059;-75
2022/06/14 05:47:37;;;;;;;10.57;3.97;;;;;;;29.47;46.63;100618.88;2102296;28;20044;-75
2022/06/14 05:49:04;;;;;;;8.02;3.65;;;;;;;29.36;47.15;100626.88;2093463;28;20543;-75
2022/06/14 05:50:33;;;;;;;6.10;3.35;;;;;;;29.79;46.36;100627.69;2098979;28;20077;-75
2022/06/14 05:52:02;;;;;;;6.72;3.00;;;;;;;30.02;46.12;100620.72;2104209;28;20705;-75
2022/06/14 05:53:28;;;;;;;8.38;3.70;;;;;;;29.94;46.18;100626.69;2102814;28;20051;-75
2022/06/14 05:54:57;;;;;;;7.85;3.50;;;;;;;30.42;45.51;100630.66;2102572;28;20059;-75
2022/06/14 05:56:26;;;;;;;10.40;3.63;;;;;;;30.38;45.42;100629.13;2096226;28;20055;-75
2022/06/14 05:57:53;;;;;;;7.22;3.28;;;;;;;30.30;46.14;100634.22;2102886;28;20540;-76
2022/06/14 05:59:28;;;;;;;8.10;3.90;;;;;;;30.36;45.71;100627.47;2108051;28;20146;-75
2022/06/14 06:00:55;;;;;;;7.53;3.95;;;;;;;30.54;45.44;100625.34;2104451;28;20040;-75
2022/06/14 06:02:25;;;;;;;14.23;3.30;;;;;;;30.37;45.75;100623.78;2104574;28;20046;-75
2022/06/14 06:03:54;;;;;;;7.82;3.40;;;;;;;30.24;45.94;100631.03;2102854;28;20135;-75
2022/06/14 06:05:21;;;;;;;9.15;3.75;;;;;;;29.75;46.79;100631.56;2103176;28;20056;-75
2022/06/14 06:06:48;;;;;;;8.82;3.50;;;;;;;29.50;47.20;100629.59;2102989;28;20144;-76
2022/06/14 06:08:15;;;;;;;11.77;4.10;;;;;;;29.31;47.79;100623.56;2103462;28;20044;-75
2022/06/14 06:09:42;;;;;;;8.43;3.58;;;;;;;29.52;48.01;100640.38;2095289;28;20067;-74
2022/06/14 06:11:09;;;;;;;9.50;3.50;;;;;;;30.13;46.96;100639.09;2100506;28;20523;-75
2022/06/14 06:12:37;;;;;;;9.35;3.40;;;;;;;30.27;46.32;100630.81;2103133;28;20436;-75
2022/06/14 06:14:05;;;;;;;8.10;3.10;;;;;;;30.15;46.81;100631.66;2108767;28;20047;-74
2022/06/14 06:15:33;;;;;;;8.07;3.92;;;;;;;30.35;46.49;100625.72;2101804;28;20147;-74
2022/06/14 06:17:02;;;;;;;6.82;3.00;;;;;;;30.06;46.87;100641.34;2100010;28;20056;-73
2022/06/14 06:18:36;;;;;;;5.57;3.40;;;;;;;30.10;47.06;100640.16;2103322;28;20040;-73
2022/06/14 06:20:06;;;;;;;8.82;3.42;;;;;;;30.79;45.97;100634.44;2103711;28;20049;-73
2022/06/14 06:21:34;;;;;;;7.47;3.45;;;;;;;31.24;45.06;100646.66;2102021;28;20550;-73
2022/06/14 06:23:04;;;;;;;8.02;3.20;;;;;;;31.08;45.20;100645.16;2104051;28;20048;-73
2022/06/14 06:24:34;;;;;;;9.05;3.45;;;;;;;30.92;45.59;100648.06;2087712;28;20071;-73
2022/06/14 06:25:57;;;;;;;10.00;3.28;;;;;;;30.59;45.87;100645.00;2104292;28;20062;-73
2022/06/14 06:27:26;;;;;;;8.52;3.65;;;;;;;30.13;46.86;100644.53;2102326;28;20197;-73
2022/06/14 06:28:55;;;;;;;6.68;3.38;;;;;;;29.99;47.06;100650.91;2111802;28;20579;-73
2022/06/14 06:30:25;;;;;;;8.23;3.40;;;;;;;30.03;47.45;100657.88;2091155;28;20041;-71
2022/06/14 06:31:48;;;;;;;7.55;3.38;;;;;;;30.75;46.35;100648.41;2099967;28;20148;-73
2022/06/14 06:33:13;;;;;;;11.60;3.70;;;;;;;31.52;44.77;100656.47;2103575;28;20134;-73
2022/06/14 06:34:37;;;;;;;12.88;3.45;;;;;;;31.59;44.53;100652.31;2101516;28;20044;-73
2022/06/14 06:36:19;;;;;;;6.97;3.60;;;;;;;31.58;44.07;100645.09;2112027;28;20142;-73
2022/06/14 06:37:48;;;;;;;10.52;3.40;;;;;;;31.22;44.49;100640.47;2106072;28;20063;-73
2022/06/14 06:39:32;;;;;;;10.82;3.33;;;;;;;30.66;45.58;100651.75;2104090;28;20048;-73
2022/06/14 06:42:43;;;;;;;7.30;3.75;;;;;;;30.74;45.70;100652.97;2080913;28;20050;-73
2022/06/14 06:44:09;;;;;;;12.07;3.85;;;;;;;30.92;45.44;100645.34;2095269;28;20500;-73
2022/06/14 06:45:33;;;;;;;8.88;3.25;;;;;;;31.39;44.82;100641.09;2101345;28;20108;-73
2022/06/14 06:47:05;;;;;;;7.03;3.80;;;;;;;31.83;44.01;100638.72;2103494;28;20040;-73
2022/06/14 06:48:35;;;;;;;7.18;3.10;;;;;;;32.12;43.47;100641.09;2091650;28;20139;-73
2022/06/14 06:50:11;;;;;;;6.38;2.90;;;;;;;32.25;42.94;100653.75;2102840;28;20452;-75
2022/06/14 06:51:42;;;;;;;7.95;3.30;;;;;;;32.33;43.59;100647.69;2104872;28;20149;-73
2022/06/14 06:53:12;;;;;;;13.32;3.30;;;;;;;32.40;43.71;100647.13;2103498;28;20113;-75
2022/06/14 06:54:43;;;;;;;5.13;3.20;;;;;;;31.75;44.93;100630.22;2101232;28;20063;-75
2022/06/14 06:56:10;;;;;;;8.48;3.65;;;;;;;31.26;46.24;100639.25;2104310;28;20130;-75
2022/06/14 06:57:37;;;;;;;6.95;3.33;;;;;;;31.20;46.83;100633.38;2099735;28;20570;-74
2022/06/14 06:59:04;;;;;;;10.82;3.40;;;;;;;31.22;46.51;100642.31;2103340;28;20547;-76